Relevés horaires Matro (Suisse)


Relevés horaires à Matro - Samedi 10 Mai 2014
Heure UTC1 Température [°C] Vent [km/h] Hum. [%] Pres.4 [hPa] Visi. [Km] Nébu. [octa] Préc.5 [mm] Cond.
2m. Res. Ros. Dir.2 Vit. Moy. Raf.3
23:00 5.5 2.1 2.3 SSE 16.7 18.5 27.8 80 850(-1.0/3h) -- -- -- --
22:00 6.6 3.5 1.2 SSE 16.7 20.4 31.5 68 850(-1.0/3h) -- -- -- --
21:00 6.8 4 0.4 SE 14.8 20.4 24.1 64 850(-0.6/3h) -- -- -- --
20:00 6.3 3.7 1.4 SE 13.0 13.0 24.1 71 850(-0.4/3h) -- -- -- --
19:00 6.6 4 2.4 SSE 13.0 14.8 20.4 74 850(-0.4/3h) -- -- -- --
18:00 6.9 4.1 2.2 SE 14.8 35.2 51.9 72 850(-0.2/3h) -- -- -- --
17:00 6.7 3.2 3.2 S 20.4 29.6 44.4 78 850(-0.5/3h) -- -- -- --
16:00 7.1 2.8 4.5 SSE 29.6 35.2 44.4 84 850(-0.8/3h) -- -- -- --
15:00 8.0 4 3.8 S 29.6 33.3 51.9 75 850(-1.3/3h) -- -- -- --
14:00 9.3 5.8 2.1 SSE 27.8 25.9 38.9 61 850(-1.3/3h) -- -- -- --
13:00 8.9 5.6 0.5 SSE 24.1 24.1 37.0 56 850(-1.0/3h) -- -- -- --
12:00 8.9 6.3 0.1 S 16.7 22.2 35.2 54 850(-0.4/3h) -- -- -- --
11:00 8.6 6.2 -0.2 SSE 14.8 14.8 24.1 54 850(-0.4/3h) -- -- -- --
10:00 8.4 7.7 0.6 SSE 5.6 5.6 16.7 58 850(0.0/3h) -- -- -- --
09:00 8.6 8.6 -1.8 S 3.7 11.1 16.7 48 850(-0.1/3h) -- -- -- --
08:00 6.4 5.5 -1.5 NO 5.6 11.1 16.7 57 850(0.3/3h) -- -- -- --
07:00 5.8 4.2 -2.0 NNO 7.4 11.1 14.8 57 850(0.5/3h) -- -- -- --
06:00 5.1 3.4 -1.1 NO 7.4 33.3 48.2 64 850(0.6/3h) -- -- -- --
05:00 5.4 2.3 -2.8 NO 14.8 18.5 24.1 55 850(0.2/3h) -- -- -- --
04:00 5.1 1.1 -3.1 NO 20.4 24.1 31.5 55 850(-0.3/3h) -- -- -- --
03:00 4.9 0.3 -2.9 NO 25.9 33.3 48.2 57 850(-0.9/3h) -- -- -- --
02:00 5.3 0.3 -2.9 NO 31.5 33.3 48.2 55 850(-0.8/3h) -- -- -- --
01:00 5.4 0.8 -2.2 NNO 27.8 27.8 37.0 58 850(-1.0/3h) -- -- -- --
00:00 5.8 1.8 -1.5 NNO 22.2 24.1 31.5 59 850(-0.4/3h) -- -- -- --

1 Coordinated Universal Time. Actuellement il est 12:00 locale et 10:00 UTC.

2 Le vent souffle depuis la direction indiquée vers la direction oposée.

3 Les rafales max. sont disponible 40 min après l'heure du relevé.

4 Pour les stations d'altitude (plus de 600m) le géopotentiel du niveau le plus proche de la pression obligatoire est indiqué.

5 Les stations disposant d'un diffuseur peuvent indiquer "trace". Cela signifie que des précipitations ont touchés le sol mais que la quantité est inférieure à 0.1 mm.

Copyright

Les données affichées sur cette page sont la propriété exclusive de Météo Suisse.

Récapitulatif de la journée
Température [°C] Vent [km/h] Ensoleillement4 [h] Precipitations totale5 [mm] Pression [Hpa]
Min1 Max.2 Moy.3 Max. Min Max.
4.9 9.7 22.5 51.9 0 h 0 min 0 850.0 850.0

1 Température minimale relevée entre 18:00 UTC la veille et 18:00 UTC le jour donné.

2 Température maximale relevée entre 06:00 UTC le jour donné et 06:00 UTC le lendemain.

3 Vent moyen de la journée basé sur les relevés horaires.

4 Ensoleillement en heures relevé entre 06:00 UTC la veille et 06:00 UTC le jour donné.

5 Précipitations totales tombées entre 06:00 UTC la jour donné et 06:00 UTC le lendemain.

Graphiques horaires